首页
METAR-TAF:

METAR-TAF

机场 :

Kinston Regional Jetport at Stallings Field

金斯顿, 北卡罗来纳州, 美国

纬度: 35-20N, 经度: 077-37W, 海拔: 29米

当前天气观测

该预报发布于15分钟前的02:55 UTC
风速6节,风向西北
温度 18°C
湿度 56%
气压 1014 hPa
能見度: 16.1公里
阴天层高于7000英尺

METAR: KISO 170255Z AUTO 31006KT 10SM OVC070 18/09 A2994 RMK AO2 T01820090

时间: 23:10 (03:10 UTC)

预报

该预报发布于3小时和50分钟前的23:20 UTC
预报有效从17日的 00点(UTC)到 17日的 24点(UTC)
风速12节,风向北转西北,有时为22节阵风
能見度: 10公里
阴天层高于6000英尺
从 17日的 0300点(UTC)
风速6节,风向西北
能見度: 10公里
少量云层高于18000英尺
从 17日的 0400点(UTC)
风速8节,风向北转西北,有时为18节阵风
能見度: 10公里
少量云层高于18000英尺
从 17日的 1300点(UTC)
风速9节,风向西北,有时为14节阵风
能見度: 10公里
天空无云
从 17日的 2300点(UTC)
风速6节,风向西转西北
能見度: 10公里
天空无云

TAF: KISO 162320Z 1700/1724 33012G22KT P6SM OVC060 FM170300 32006KT P6SM FEW180 FM170400 34008G18KT P6SM FEW180 FM171300 32009G14KT P6SM SKC FM172300 29006KT P6SM SKC AMD LTD TO CLD VIS AND WIND

超过4000个机场的气象观测和天气预报(METAR&TAF报告)。

可查询的气象台以黄色和红色小点在地图上表示。

将鼠标移到小点上方,可查看气象台名称。

然后点击查看天气观测和预报。

如需切换地图:点击带黑十字的绿色按钮放大地图;点击带横线的绿色按钮缩小地图;或者点击绿色箭头查看邻近地区的地图。


METAR-TAF: